PWSweather.com
Personal Weather Stations
Station Observations
CW4114
Near Downtown, Rogers City, MI 49779

Near DowntownRogers City, MI 49779

Lat: 45.417443, Lon: -83.810642

Elevation: 605

Station Type: Davis Vantage Pro2 w/Solar

Latest ConditionsUpdated 10:56:49 PM EDT Monday, Apr 23, 2018
Currently Today's Max Today's Min Today's Average
Temperature 37.0°F2.8°C 56.3°F13.5°C 32.7°F0.4°C 42.1°F5.6°C
Dew Point 32.7°F0.4°C 37.4°F3.0°C 24.4°F-4.2°C 30.6°F-0.8°C
Winds 0.4 mph NE0.6 kmh NE 7.6 mph E12.2 kmh E - 2.5 mph 4.0 kmh
Wind Gusts 2.0 mph3.2 kmh 10.5 mph16.9 kmh - -
Humidity 84% 84% 31% 65%
Pressure 30.18 in1022.0 mb 30.37 in1028.4 mb 30.18 in1022.0 mb -
Hour Temp Dew Point Humidity Winds Wind Gusts Pressure Precip Precip Rate Daily Precip Total
10:56 PM 37.0°F2.8°C 32.7°F0.4°C 84% 0.4 mph NE0.6 kmh NE 2.0 mph3.2 kmh 30.18 in1022.0 mb 0.00 in0.0 mm 0.00 in0.0 mm 0.00 in0.0 mm
10:51 PM 37.0°F2.8°C 32.7°F0.4°C 84% Calm Calm -- 30.18 in1022.0 mb 0.00 in0.0 mm 0.00 in0.0 mm 0.00 in0.0 mm
10:46 PM 37.2°F2.9°C 32.5°F0.3°C 83% Calm Calm 2.0 mph3.2 kmh 30.18 in1022.0 mb 0.00 in0.0 mm 0.00 in0.0 mm 0.00 in0.0 mm
10:41 PM 37.2°F2.9°C 32.5°F0.3°C 83% 0.9 mph NE1.4 kmh NE 2.0 mph3.2 kmh 30.18 in1022.0 mb 0.00 in0.0 mm 0.00 in0.0 mm 0.00 in0.0 mm
10:36 PM 37.2°F2.9°C 32.5°F0.3°C 83% 1.1 mph SW1.8 kmh SW 2.0 mph3.2 kmh 30.18 in1022.0 mb 0.00 in0.0 mm 0.00 in0.0 mm 0.00 in0.0 mm
10:31 PM 37.2°F2.9°C 32.5°F0.3°C 83% Calm Calm -- 30.18 in1022.0 mb 0.00 in0.0 mm 0.00 in0.0 mm 0.00 in0.0 mm
10:26 PM 37.6°F3.1°C 32.5°F0.3°C 82% Calm Calm -- 30.19 in1022.4 mb 0.00 in0.0 mm 0.00 in0.0 mm 0.00 in0.0 mm
10:21 PM 37.8°F3.2°C 32.7°F0.4°C 82% Calm Calm -- 30.19 in1022.4 mb 0.00 in0.0 mm 0.00 in0.0 mm 0.00 in0.0 mm
10:16 PM 37.9°F3.3°C 32.7°F0.4°C 81% Calm Calm -- 30.19 in1022.4 mb 0.00 in0.0 mm 0.00 in0.0 mm 0.00 in0.0 mm
10:11 PM 38.1°F3.4°C 32.5°F0.3°C 80% Calm Calm -- 30.19 in1022.4 mb 0.00 in0.0 mm 0.00 in0.0 mm 0.00 in0.0 mm
10:06 PM 38.5°F3.6°C 32.5°F0.3°C 79% Calm Calm -- 30.19 in1022.4 mb 0.00 in0.0 mm 0.00 in0.0 mm 0.00 in0.0 mm
10:01 PM 38.8°F3.8°C 32.5°F0.3°C 78% Calm Calm 1.1 mph1.8 kmh 30.18 in1022.0 mb 0.00 in0.0 mm 0.00 in0.0 mm 0.00 in0.0 mm
09:56 PM 39.4°F4.1°C 32.7°F0.4°C 77% 0.7 mph NE1.1 kmh NE 2.0 mph3.2 kmh 30.18 in1022.0 mb 0.00 in0.0 mm 0.00 in0.0 mm 0.00 in0.0 mm
09:51 PM 39.7°F4.3°C 32.5°F0.3°C 75% Calm Calm -- 30.19 in1022.4 mb 0.00 in0.0 mm 0.00 in0.0 mm 0.00 in0.0 mm
09:46 PM 40.3°F4.6°C 33.1°F0.6°C 75% Calm Calm -- 30.19 in1022.4 mb 0.00 in0.0 mm 0.00 in0.0 mm 0.00 in0.0 mm
09:41 PM 40.8°F4.9°C 33.3°F0.7°C 74% Calm Calm -- 30.19 in1022.4 mb 0.00 in0.0 mm 0.00 in0.0 mm 0.00 in0.0 mm
09:36 PM 41.4°F5.2°C 33.1°F0.6°C 72% Calm Calm -- 30.19 in1022.4 mb 0.00 in0.0 mm 0.00 in0.0 mm 0.00 in0.0 mm
09:31 PM 42.3°F5.7°C 33.3°F0.7°C 70% 0.4 mph NNE0.6 kmh NNE 2.0 mph3.2 kmh 30.19 in1022.4 mb 0.00 in0.0 mm 0.00 in0.0 mm 0.00 in0.0 mm
09:26 PM 43.0°F6.1°C 32.7°F0.4°C 67% 0.9 mph NNE1.4 kmh NNE 2.0 mph3.2 kmh 30.19 in1022.4 mb 0.00 in0.0 mm 0.00 in0.0 mm 0.00 in0.0 mm
09:21 PM 43.3°F6.3°C 32.4°F0.2°C 65% 0.4 mph SSE0.6 kmh SSE 4.3 mph6.9 kmh 30.19 in1022.4 mb 0.00 in0.0 mm 0.00 in0.0 mm 0.00 in0.0 mm
09:16 PM 43.5°F6.4°C 32.2°F0.1°C 64% 1.1 mph SSE1.8 kmh SSE 2.0 mph3.2 kmh 30.19 in1022.4 mb 0.00 in0.0 mm 0.00 in0.0 mm 0.00 in0.0 mm
09:11 PM 43.9°F6.6°C 31.3°F-0.4°C 61% 1.1 mph ESE1.8 kmh ESE 2.0 mph3.2 kmh 30.19 in1022.4 mb 0.00 in0.0 mm 0.00 in0.0 mm 0.00 in0.0 mm
09:06 PM 43.9°F6.6°C 31.3°F-0.4°C 61% 0.4 mph SE0.6 kmh SE 2.0 mph3.2 kmh 30.19 in1022.4 mb 0.00 in0.0 mm 0.00 in0.0 mm 0.00 in0.0 mm
09:01 PM 43.7°F6.5°C 31.1°F-0.5°C 61% 2.0 mph SSE3.2 kmh SSE 4.3 mph6.9 kmh 30.19 in1022.4 mb 0.00 in0.0 mm 0.00 in0.0 mm 0.00 in0.0 mm
08:56 PM 43.2°F6.2°C 31.1°F-0.5°C 62% 1.8 mph SE2.9 kmh SE 6.3 mph10.1 kmh 30.19 in1022.4 mb 0.00 in0.0 mm 0.00 in0.0 mm 0.00 in0.0 mm
08:51 PM 42.4°F5.8°C 31.5°F-0.3°C 65% 1.8 mph SE2.9 kmh SE 4.3 mph6.9 kmh 30.19 in1022.4 mb 0.00 in0.0 mm 0.00 in0.0 mm 0.00 in0.0 mm
08:46 PM 41.5°F5.3°C 31.8°F-0.1°C 68% 3.6 mph S5.8 kmh S 5.4 mph8.7 kmh 30.19 in1022.4 mb 0.00 in0.0 mm 0.00 in0.0 mm 0.00 in0.0 mm
08:41 PM 40.6°F4.8°C 32.4°F0.2°C 72% 2.2 mph S3.5 kmh S 4.3 mph6.9 kmh 30.18 in1022.0 mb 0.00 in0.0 mm 0.00 in0.0 mm 0.00 in0.0 mm
08:36 PM 39.9°F4.4°C 32.7°F0.4°C 75% 1.6 mph SSE2.6 kmh SSE 3.1 mph5.0 kmh 30.19 in1022.4 mb 0.00 in0.0 mm 0.00 in0.0 mm 0.00 in0.0 mm
08:31 PM 39.7°F4.3°C 33.4°F0.8°C 78% 1.1 mph SSE1.8 kmh SSE 3.1 mph5.0 kmh 30.18 in1022.0 mb 0.00 in0.0 mm 0.00 in0.0 mm 0.00 in0.0 mm
08:26 PM 39.4°F4.1°C 33.8°F1.0°C 80% 2.5 mph SSE4.0 kmh SSE 4.3 mph6.9 kmh 30.19 in1022.4 mb 0.00 in0.0 mm 0.00 in0.0 mm 0.00 in0.0 mm
08:21 PM 39.2°F4.0°C 33.8°F1.0°C 81% 1.3 mph SSE2.1 kmh SSE 2.0 mph3.2 kmh 30.19 in1022.4 mb 0.00 in0.0 mm 0.00 in0.0 mm 0.00 in0.0 mm
08:16 PM 39.0°F3.9°C 33.6°F0.9°C 81% 1.3 mph S2.1 kmh S 2.0 mph3.2 kmh 30.19 in1022.4 mb 0.00 in0.0 mm 0.00 in0.0 mm 0.00 in0.0 mm
08:11 PM 38.8°F3.8°C 33.3°F0.7°C 80% 0.4 mph SE0.6 kmh SE 2.0 mph3.2 kmh 30.19 in1022.4 mb 0.00 in0.0 mm 0.00 in0.0 mm 0.00 in0.0 mm
08:06 PM 39.0°F3.9°C 33.4°F0.8°C 80% 1.6 mph E2.6 kmh E 4.3 mph6.9 kmh 30.19 in1022.4 mb 0.00 in0.0 mm 0.00 in0.0 mm 0.00 in0.0 mm
08:01 PM 39.4°F4.1°C 33.4°F0.8°C 79% 2.2 mph E3.5 kmh E 4.3 mph6.9 kmh 30.19 in1022.4 mb 0.00 in0.0 mm 0.00 in0.0 mm 0.00 in0.0 mm
07:56 PM 39.9°F4.4°C 33.6°F0.9°C 78% 3.1 mph E5.0 kmh E 6.3 mph10.1 kmh 30.19 in1022.4 mb 0.00 in0.0 mm 0.00 in0.0 mm 0.00 in0.0 mm
07:51 PM 40.6°F4.8°C 33.6°F0.9°C 76% 3.1 mph ENE5.0 kmh ENE 5.4 mph8.7 kmh 30.19 in1022.4 mb 0.00 in0.0 mm 0.00 in0.0 mm 0.00 in0.0 mm
07:46 PM 41.2°F5.1°C 34.2°F1.2°C 76% 2.7 mph ENE4.3 kmh ENE 4.3 mph6.9 kmh 30.19 in1022.4 mb 0.00 in0.0 mm 0.00 in0.0 mm 0.00 in0.0 mm
07:41 PM 41.4°F5.2°C 34.0°F1.1°C 75% 1.1 mph ENE1.8 kmh ENE 3.1 mph5.0 kmh 30.19 in1022.4 mb 0.00 in0.0 mm 0.00 in0.0 mm 0.00 in0.0 mm
07:36 PM 41.5°F5.3°C 33.8°F1.0°C 74% 2.5 mph E4.0 kmh E 4.3 mph6.9 kmh 30.18 in1022.0 mb 0.00 in0.0 mm 0.00 in0.0 mm 0.00 in0.0 mm
07:31 PM 41.7°F5.4°C 34.0°F1.1°C 74% 2.5 mph ENE4.0 kmh ENE 4.3 mph6.9 kmh 30.18 in1022.0 mb 0.00 in0.0 mm 0.00 in0.0 mm 0.00 in0.0 mm
07:26 PM 42.1°F5.6°C 34.3°F1.3°C 74% 1.6 mph NE2.6 kmh NE 3.1 mph5.0 kmh 30.18 in1022.0 mb 0.00 in0.0 mm 0.00 in0.0 mm 0.00 in0.0 mm
07:21 PM 42.4°F5.8°C 34.0°F1.1°C 72% 1.8 mph NE2.9 kmh NE 4.3 mph6.9 kmh 30.18 in1022.0 mb 0.00 in0.0 mm 0.00 in0.0 mm 0.00 in0.0 mm
07:16 PM 43.3°F6.3°C 34.5°F1.4°C 71% 3.6 mph E5.8 kmh E 6.3 mph10.1 kmh 30.18 in1022.0 mb 0.00 in0.0 mm 0.00 in0.0 mm 0.00 in0.0 mm
07:11 PM 43.5°F6.4°C 35.4°F1.9°C 73% 0.9 mph E1.4 kmh E -- 30.18 in1022.0 mb 0.00 in0.0 mm 0.00 in0.0 mm 0.00 in0.0 mm
07:06 PM 43.5°F6.4°C 35.1°F1.7°C 72% 1.1 mph E1.8 kmh E 2.0 mph3.2 kmh 30.18 in1022.0 mb 0.00 in0.0 mm 0.00 in0.0 mm 0.00 in0.0 mm
07:01 PM 43.5°F6.4°C 35.1°F1.7°C 72% 0.7 mph ENE1.1 kmh ENE 2.0 mph3.2 kmh 30.19 in1022.4 mb 0.00 in0.0 mm 0.00 in0.0 mm 0.00 in0.0 mm
06:56 PM 43.9°F6.6°C 35.1°F1.7°C 71% 1.8 mph ENE2.9 kmh ENE 3.1 mph5.0 kmh 30.19 in1022.4 mb 0.00 in0.0 mm 0.00 in0.0 mm 0.00 in0.0 mm
06:51 PM 44.4°F6.9°C 34.9°F1.6°C 69% 2.2 mph E3.5 kmh E 5.4 mph8.7 kmh 30.19 in1022.4 mb 0.00 in0.0 mm 0.00 in0.0 mm 0.00 in0.0 mm
06:46 PM 45.1°F7.3°C 34.9°F1.6°C 67% 2.7 mph E4.3 kmh E 5.4 mph8.7 kmh 30.19 in1022.4 mb 0.00 in0.0 mm 0.00 in0.0 mm 0.00 in0.0 mm
06:41 PM 45.3°F7.4°C 34.3°F1.3°C 65% 2.7 mph E4.3 kmh E 5.4 mph8.7 kmh 30.19 in1022.4 mb 0.00 in0.0 mm 0.00 in0.0 mm 0.00 in0.0 mm
06:36 PM 45.1°F7.3°C 34.9°F1.6°C 67% 2.2 mph E3.5 kmh E 4.3 mph6.9 kmh 30.19 in1022.4 mb 0.00 in0.0 mm 0.00 in0.0 mm 0.00 in0.0 mm
06:31 PM 45.0°F7.2°C 34.7°F1.5°C 67% 2.0 mph E3.2 kmh E 4.3 mph6.9 kmh 30.19 in1022.4 mb 0.00 in0.0 mm 0.00 in0.0 mm 0.00 in0.0 mm
06:26 PM 45.1°F7.3°C 34.2°F1.2°C 65% 2.5 mph ENE4.0 kmh ENE 4.3 mph6.9 kmh 30.19 in1022.4 mb 0.00 in0.0 mm 0.00 in0.0 mm 0.00 in0.0 mm
06:21 PM 45.9°F7.7°C 34.3°F1.3°C 64% 4.3 mph ENE6.9 kmh ENE 6.3 mph10.1 kmh 30.19 in1022.4 mb 0.00 in0.0 mm 0.00 in0.0 mm 0.00 in0.0 mm
06:16 PM 46.6°F8.1°C 34.7°F1.5°C 63% 3.8 mph NE6.1 kmh NE 5.4 mph8.7 kmh 30.20 in1022.7 mb 0.00 in0.0 mm 0.00 in0.0 mm 0.00 in0.0 mm
06:11 PM 46.4°F8.0°C 35.2°F1.8°C 65% 3.4 mph ENE5.5 kmh ENE 4.3 mph6.9 kmh 30.19 in1022.4 mb 0.00 in0.0 mm 0.00 in0.0 mm 0.00 in0.0 mm
06:06 PM 45.9°F7.7°C 35.6°F2.0°C 67% 3.4 mph NE5.5 kmh NE 5.4 mph8.7 kmh 30.19 in1022.4 mb 0.00 in0.0 mm 0.00 in0.0 mm 0.00 in0.0 mm
06:01 PM 45.1°F7.3°C 35.2°F1.8°C 68% 2.2 mph E3.5 kmh E 5.4 mph8.7 kmh 30.19 in1022.4 mb 0.00 in0.0 mm 0.00 in0.0 mm 0.00 in0.0 mm
05:56 PM 45.0°F7.2°C 35.1°F1.7°C 68% 3.1 mph E5.0 kmh E 5.4 mph8.7 kmh 30.20 in1022.7 mb 0.00 in0.0 mm 0.00 in0.0 mm 0.00 in0.0 mm
05:51 PM 45.1°F7.3°C 34.5°F1.4°C 66% 4.0 mph E6.4 kmh E 7.4 mph11.9 kmh 30.20 in1022.7 mb 0.00 in0.0 mm 0.00 in0.0 mm 0.00 in0.0 mm
05:46 PM 46.2°F7.9°C 34.7°F1.5°C 64% 4.5 mph E7.2 kmh E 7.4 mph11.9 kmh 30.20 in1022.7 mb 0.00 in0.0 mm 0.00 in0.0 mm 0.00 in0.0 mm
05:41 PM 47.7°F8.7°C 34.0°F1.1°C 59% 5.4 mph ESE8.7 kmh ESE 9.6 mph15.4 kmh 30.20 in1022.7 mb 0.00 in0.0 mm 0.00 in0.0 mm 0.00 in0.0 mm
05:36 PM 48.7°F9.3°C 34.2°F1.2°C 57% 6.0 mph E9.7 kmh E 10.5 mph16.9 kmh 30.20 in1022.7 mb 0.00 in0.0 mm 0.00 in0.0 mm 0.00 in0.0 mm
05:31 PM 48.6°F9.2°C 35.8°F2.1°C 61% 5.4 mph E8.7 kmh E 8.5 mph13.7 kmh 30.21 in1023.0 mb 0.00 in0.0 mm 0.00 in0.0 mm 0.00 in0.0 mm
05:26 PM 46.6°F8.1°C 35.1°F1.7°C 64% 4.9 mph E7.9 kmh E 8.5 mph13.7 kmh 30.20 in1022.7 mb 0.00 in0.0 mm 0.00 in0.0 mm 0.00 in0.0 mm
05:21 PM 46.2°F7.9°C 35.1°F1.7°C 65% 4.9 mph E7.9 kmh E 8.5 mph13.7 kmh 30.21 in1023.0 mb 0.00 in0.0 mm 0.00 in0.0 mm 0.00 in0.0 mm
05:16 PM 45.9°F7.7°C 35.1°F1.7°C 66% 4.9 mph E7.9 kmh E 8.5 mph13.7 kmh 30.21 in1023.0 mb 0.00 in0.0 mm 0.00 in0.0 mm 0.00 in0.0 mm
05:11 PM 46.6°F8.1°C 35.4°F1.9°C 65% 4.5 mph ESE7.2 kmh ESE 7.4 mph11.9 kmh 30.21 in1023.0 mb 0.00 in0.0 mm 0.00 in0.0 mm 0.00 in0.0 mm
05:06 PM 48.6°F9.2°C 35.8°F2.1°C 61% 3.1 mph E5.0 kmh E 8.5 mph13.7 kmh 30.21 in1023.0 mb 0.00 in0.0 mm 0.00 in0.0 mm 0.00 in0.0 mm
05:01 PM 49.8°F9.9°C 35.2°F1.8°C 57% 5.8 mph NE9.3 kmh NE 9.6 mph15.4 kmh 30.21 in1023.0 mb 0.00 in0.0 mm 0.00 in0.0 mm 0.00 in0.0 mm
04:56 PM 50.0°F10.0°C 35.4°F1.9°C 57% 5.6 mph SE9.0 kmh SE 7.4 mph11.9 kmh 30.21 in1023.0 mb 0.00 in0.0 mm 0.00 in0.0 mm 0.00 in0.0 mm
04:51 PM 48.2°F9.0°C 35.8°F2.1°C 62% 4.3 mph E6.9 kmh E 7.4 mph11.9 kmh 30.21 in1023.0 mb 0.00 in0.0 mm 0.00 in0.0 mm 0.00 in0.0 mm
04:46 PM 47.7°F8.7°C 36.5°F2.5°C 65% 3.6 mph E5.8 kmh E 6.3 mph10.1 kmh 30.22 in1023.4 mb 0.00 in0.0 mm 0.00 in0.0 mm 0.00 in0.0 mm
04:41 PM 47.8°F8.8°C 37.0°F2.8°C 66% 4.3 mph ESE6.9 kmh ESE 7.4 mph11.9 kmh 30.22 in1023.4 mb 0.00 in0.0 mm 0.00 in0.0 mm 0.00 in0.0 mm
04:36 PM 48.6°F9.2°C 36.1°F2.3°C 62% 4.7 mph E7.6 kmh E 9.6 mph15.4 kmh 30.22 in1023.4 mb 0.00 in0.0 mm 0.00 in0.0 mm 0.00 in0.0 mm
04:31 PM 49.8°F9.9°C 36.1°F2.3°C 59% 6.5 mph E10.5 kmh E 9.6 mph15.4 kmh 30.22 in1023.4 mb 0.00 in0.0 mm 0.00 in0.0 mm 0.00 in0.0 mm
04:26 PM 48.9°F9.4°C 36.1°F2.3°C 61% 5.8 mph ESE9.3 kmh ESE 8.5 mph13.7 kmh 30.22 in1023.4 mb 0.00 in0.0 mm 0.00 in0.0 mm 0.00 in0.0 mm
04:21 PM 50.4°F10.2°C 37.0°F2.8°C 60% 4.0 mph SE6.4 kmh SE 7.4 mph11.9 kmh 30.22 in1023.4 mb 0.00 in0.0 mm 0.00 in0.0 mm 0.00 in0.0 mm
04:16 PM 48.4°F9.1°C 36.7°F2.6°C 64% 3.8 mph ESE6.1 kmh ESE 7.4 mph11.9 kmh 30.23 in1023.7 mb 0.00 in0.0 mm 0.00 in0.0 mm 0.00 in0.0 mm
04:11 PM 46.9°F8.3°C 36.5°F2.5°C 67% 3.6 mph E5.8 kmh E 6.3 mph10.1 kmh 30.23 in1023.7 mb 0.00 in0.0 mm 0.00 in0.0 mm 0.00 in0.0 mm
04:06 PM 47.1°F8.4°C 37.0°F2.8°C 68% 3.4 mph NE5.5 kmh NE 7.4 mph11.9 kmh 30.23 in1023.7 mb 0.00 in0.0 mm 0.00 in0.0 mm 0.00 in0.0 mm
04:01 PM 46.2°F7.9°C 37.4°F3.0°C 71% 2.9 mph ENE4.7 kmh ENE 5.4 mph8.7 kmh 30.23 in1023.7 mb 0.00 in0.0 mm 0.00 in0.0 mm 0.00 in0.0 mm
03:56 PM 45.1°F7.3°C 36.7°F2.6°C 72% 3.8 mph E6.1 kmh E 6.3 mph10.1 kmh 30.24 in1024.0 mb 0.00 in0.0 mm 0.00 in0.0 mm 0.00 in0.0 mm
03:51 PM 44.2°F6.8°C 35.8°F2.1°C 72% 3.8 mph ENE6.1 kmh ENE 8.5 mph13.7 kmh 30.24 in1024.0 mb 0.00 in0.0 mm 0.00 in0.0 mm 0.00 in0.0 mm
03:46 PM 44.2°F6.8°C 35.8°F2.1°C 72% 4.3 mph E6.9 kmh E 7.4 mph11.9 kmh 30.24 in1024.0 mb 0.00 in0.0 mm 0.00 in0.0 mm 0.00 in0.0 mm
03:41 PM 44.6°F7.0°C 35.8°F2.1°C 71% 5.4 mph E8.7 kmh E 8.5 mph13.7 kmh 30.24 in1024.0 mb 0.00 in0.0 mm 0.00 in0.0 mm 0.00 in0.0 mm
03:36 PM 45.1°F7.3°C 36.3°F2.4°C 71% 4.0 mph ESE6.4 kmh ESE 7.4 mph11.9 kmh 30.25 in1024.4 mb 0.00 in0.0 mm 0.00 in0.0 mm 0.00 in0.0 mm
03:31 PM 45.0°F7.2°C 36.1°F2.3°C 71% 4.0 mph NE6.4 kmh NE 7.4 mph11.9 kmh 30.25 in1024.4 mb 0.00 in0.0 mm 0.00 in0.0 mm 0.00 in0.0 mm
03:26 PM 45.3°F7.4°C 36.1°F2.3°C 70% 4.7 mph E7.6 kmh E 8.5 mph13.7 kmh 30.25 in1024.4 mb 0.00 in0.0 mm 0.00 in0.0 mm 0.00 in0.0 mm
03:21 PM 45.3°F7.4°C 36.1°F2.3°C 70% 4.5 mph SE7.2 kmh SE 8.5 mph13.7 kmh 30.25 in1024.4 mb 0.00 in0.0 mm 0.00 in0.0 mm 0.00 in0.0 mm
03:16 PM 44.8°F7.1°C 36.0°F2.2°C 71% 4.9 mph E7.9 kmh E 8.5 mph13.7 kmh 30.25 in1024.4 mb 0.00 in0.0 mm 0.00 in0.0 mm 0.00 in0.0 mm
03:11 PM 44.2°F6.8°C 35.4°F1.9°C 71% 6.0 mph E9.7 kmh E 9.6 mph15.4 kmh 30.25 in1024.4 mb 0.00 in0.0 mm 0.00 in0.0 mm 0.00 in0.0 mm
03:06 PM 44.2°F6.8°C 35.8°F2.1°C 72% 4.7 mph ENE7.6 kmh ENE 7.4 mph11.9 kmh 30.25 in1024.4 mb 0.00 in0.0 mm 0.00 in0.0 mm 0.00 in0.0 mm
03:01 PM 44.1°F6.7°C 35.2°F1.8°C 71% 5.6 mph ENE9.0 kmh ENE 9.6 mph15.4 kmh 30.25 in1024.4 mb 0.00 in0.0 mm 0.00 in0.0 mm 0.00 in0.0 mm
02:56 PM 44.8°F7.1°C 36.0°F2.2°C 71% 4.9 mph E7.9 kmh E 7.4 mph11.9 kmh 30.26 in1024.7 mb 0.00 in0.0 mm 0.00 in0.0 mm 0.00 in0.0 mm
02:51 PM 45.0°F7.2°C 35.8°F2.1°C 70% 4.5 mph ENE7.2 kmh ENE 7.4 mph11.9 kmh 30.26 in1024.7 mb 0.00 in0.0 mm 0.00 in0.0 mm 0.00 in0.0 mm
02:46 PM 45.0°F7.2°C 35.1°F1.7°C 68% 5.6 mph ENE9.0 kmh ENE 9.6 mph15.4 kmh 30.26 in1024.7 mb 0.00 in0.0 mm 0.00 in0.0 mm 0.00 in0.0 mm
02:41 PM 45.3°F7.4°C 35.8°F2.1°C 69% 4.3 mph E6.9 kmh E 6.3 mph10.1 kmh 30.26 in1024.7 mb 0.00 in0.0 mm 0.00 in0.0 mm 0.00 in0.0 mm
02:36 PM 44.8°F7.1°C 35.2°F1.8°C 69% 4.5 mph ENE7.2 kmh ENE 7.4 mph11.9 kmh 30.26 in1024.7 mb 0.00 in0.0 mm 0.00 in0.0 mm 0.00 in0.0 mm
02:31 PM 44.8°F7.1°C 35.2°F1.8°C 69% 4.7 mph E7.6 kmh E 9.6 mph15.4 kmh 30.26 in1024.7 mb 0.00 in0.0 mm 0.00 in0.0 mm 0.00 in0.0 mm
02:26 PM 45.1°F7.3°C 36.0°F2.2°C 70% 4.5 mph NE7.2 kmh NE 9.6 mph15.4 kmh 30.27 in1025.1 mb 0.00 in0.0 mm 0.00 in0.0 mm 0.00 in0.0 mm
02:21 PM 44.8°F7.1°C 35.6°F2.0°C 70% 5.8 mph E9.3 kmh E 8.5 mph13.7 kmh 30.27 in1025.1 mb 0.00 in0.0 mm 0.00 in0.0 mm 0.00 in0.0 mm
02:16 PM 44.4°F6.9°C 36.0°F2.2°C 72% 3.4 mph ENE5.5 kmh ENE 6.3 mph10.1 kmh 30.27 in1025.1 mb 0.00 in0.0 mm 0.00 in0.0 mm 0.00 in0.0 mm
02:11 PM 43.2°F6.2°C 35.4°F1.9°C 74% 4.3 mph ENE6.9 kmh ENE 8.5 mph13.7 kmh 30.27 in1025.1 mb 0.00 in0.0 mm 0.00 in0.0 mm 0.00 in0.0 mm
02:06 PM 42.3°F5.7°C 34.5°F1.4°C 74% 5.6 mph E9.0 kmh E 8.5 mph13.7 kmh 30.28 in1025.4 mb 0.00 in0.0 mm 0.00 in0.0 mm 0.00 in0.0 mm
02:01 PM 42.6°F5.9°C 34.5°F1.4°C 73% 4.5 mph SE7.2 kmh SE 6.3 mph10.1 kmh 30.28 in1025.4 mb 0.00 in0.0 mm 0.00 in0.0 mm 0.00 in0.0 mm
01:56 PM 42.3°F5.7°C 34.5°F1.4°C 74% 3.4 mph ESE5.5 kmh ESE 7.4 mph11.9 kmh 30.28 in1025.4 mb 0.00 in0.0 mm 0.00 in0.0 mm 0.00 in0.0 mm
01:51 PM 43.0°F6.1°C 35.2°F1.8°C 74% 3.8 mph SE6.1 kmh SE 7.4 mph11.9 kmh 30.28 in1025.4 mb 0.00 in0.0 mm 0.00 in0.0 mm 0.00 in0.0 mm
01:46 PM 42.4°F5.8°C 34.7°F1.5°C 74% 4.3 mph E6.9 kmh E 8.5 mph13.7 kmh 30.28 in1025.4 mb 0.00 in0.0 mm 0.00 in0.0 mm 0.00 in0.0 mm
01:41 PM 42.6°F5.9°C 34.2°F1.2°C 72% 5.6 mph ESE9.0 kmh ESE 10.5 mph16.9 kmh 30.28 in1025.4 mb 0.00 in0.0 mm 0.00 in0.0 mm 0.00 in0.0 mm
01:36 PM 43.2°F6.2°C 35.1°F1.7°C 73% 4.9 mph E7.9 kmh E 9.6 mph15.4 kmh 30.28 in1025.4 mb 0.00 in0.0 mm 0.00 in0.0 mm 0.00 in0.0 mm
01:31 PM 43.7°F6.5°C 34.5°F1.4°C 70% 5.6 mph ESE9.0 kmh ESE 10.5 mph16.9 kmh 30.29 in1025.7 mb 0.00 in0.0 mm 0.00 in0.0 mm 0.00 in0.0 mm
01:26 PM 43.2°F6.2°C 34.7°F1.5°C 72% 5.6 mph E9.0 kmh E 8.5 mph13.7 kmh 30.29 in1025.7 mb 0.00 in0.0 mm 0.00 in0.0 mm 0.00 in0.0 mm
01:21 PM 43.5°F6.4°C 34.0°F1.1°C 69% 7.6 mph NE12.2 kmh NE 9.6 mph15.4 kmh 30.29 in1025.7 mb 0.00 in0.0 mm 0.00 in0.0 mm 0.00 in0.0 mm
01:16 PM 44.8°F7.1°C 35.6°F2.0°C 70% 4.0 mph NE6.4 kmh NE 8.5 mph13.7 kmh 30.29 in1025.7 mb 0.00 in0.0 mm 0.00 in0.0 mm 0.00 in0.0 mm
01:11 PM 44.8°F7.1°C 35.2°F1.8°C 69% 4.5 mph NE7.2 kmh NE 10.5 mph16.9 kmh 30.29 in1025.7 mb 0.00 in0.0 mm 0.00 in0.0 mm 0.00 in0.0 mm
01:06 PM 45.3°F7.4°C 34.3°F1.3°C 65% 7.6 mph E12.2 kmh E 10.5 mph16.9 kmh 30.30 in1026.1 mb 0.00 in0.0 mm 0.00 in0.0 mm 0.00 in0.0 mm
01:01 PM 45.7°F7.6°C 35.4°F1.9°C 67% 4.0 mph NE6.4 kmh NE 7.4 mph11.9 kmh 30.29 in1025.7 mb 0.00 in0.0 mm 0.00 in0.0 mm 0.00 in0.0 mm
12:56 PM 45.9°F7.7°C 34.7°F1.5°C 65% 3.8 mph E6.1 kmh E 7.4 mph11.9 kmh 30.30 in1026.1 mb 0.00 in0.0 mm 0.00 in0.0 mm 0.00 in0.0 mm
12:51 PM 46.6°F8.1°C 35.1°F1.7°C 64% 4.9 mph E7.9 kmh E 9.6 mph15.4 kmh 30.30 in1026.1 mb 0.00 in0.0 mm 0.00 in0.0 mm 0.00 in0.0 mm
12:46 PM 47.7°F8.7°C 35.6°F2.0°C 63% 4.9 mph E7.9 kmh E 8.5 mph13.7 kmh 30.30 in1026.1 mb 0.00 in0.0 mm 0.00 in0.0 mm 0.00 in0.0 mm
12:41 PM 46.9°F8.3°C 34.2°F1.2°C 61% 6.0 mph ENE9.7 kmh ENE 9.6 mph15.4 kmh 30.30 in1026.1 mb 0.00 in0.0 mm 0.00 in0.0 mm 0.00 in0.0 mm
12:36 PM 47.3°F8.5°C 34.2°F1.2°C 60% 5.8 mph E9.3 kmh E 10.5 mph16.9 kmh 30.30 in1026.1 mb 0.00 in0.0 mm 0.00 in0.0 mm 0.00 in0.0 mm
12:31 PM 48.0°F8.9°C 34.9°F1.6°C 60% 6.0 mph E9.7 kmh E 9.6 mph15.4 kmh 30.31 in1026.4 mb 0.00 in0.0 mm 0.00 in0.0 mm 0.00 in0.0 mm
12:26 PM 47.8°F8.8°C 36.3°F2.4°C 64% 4.9 mph E7.9 kmh E 8.5 mph13.7 kmh 30.31 in1026.4 mb 0.00 in0.0 mm 0.00 in0.0 mm 0.00 in0.0 mm
12:21 PM 46.6°F8.1°C 35.4°F1.9°C 65% 5.4 mph E8.7 kmh E 9.6 mph15.4 kmh 30.31 in1026.4 mb 0.00 in0.0 mm 0.00 in0.0 mm 0.00 in0.0 mm
12:16 PM 45.9°F7.7°C 35.1°F1.7°C 66% 5.6 mph ESE9.0 kmh ESE 9.6 mph15.4 kmh 30.31 in1026.4 mb 0.00 in0.0 mm 0.00 in0.0 mm 0.00 in0.0 mm
12:11 PM 45.9°F7.7°C 34.0°F1.1°C 63% 6.7 mph E10.8 kmh E 9.6 mph15.4 kmh 30.31 in1026.4 mb 0.00 in0.0 mm 0.00 in0.0 mm 0.00 in0.0 mm
12:06 PM 46.8°F8.2°C 34.9°F1.6°C 63% 4.5 mph E7.2 kmh E 7.4 mph11.9 kmh 30.32 in1026.8 mb 0.00 in0.0 mm 0.00 in0.0 mm 0.00 in0.0 mm
12:01 PM 47.5°F8.6°C 35.6°F2.0°C 63% 5.1 mph ENE8.2 kmh ENE 7.4 mph11.9 kmh 30.32 in1026.8 mb 0.00 in0.0 mm 0.00 in0.0 mm 0.00 in0.0 mm
11:55 AM 47.7°F8.7°C 35.6°F2.0°C 63% 3.6 mph ENE5.8 kmh ENE 6.3 mph10.1 kmh 30.32 in1026.8 mb 0.00 in0.0 mm 0.00 in0.0 mm 0.00 in0.0 mm
11:50 AM 48.4°F9.1°C 35.1°F1.7°C 60% 3.1 mph E5.0 kmh E 6.3 mph10.1 kmh 30.32 in1026.8 mb 0.00 in0.0 mm 0.00 in0.0 mm 0.00 in0.0 mm
11:45 AM 48.2°F9.0°C 34.9°F1.6°C 60% 2.7 mph NE4.3 kmh NE 6.3 mph10.1 kmh 30.32 in1026.8 mb 0.00 in0.0 mm 0.00 in0.0 mm 0.00 in0.0 mm
11:40 AM 48.4°F9.1°C 34.7°F1.5°C 59% 4.0 mph E6.4 kmh E 7.4 mph11.9 kmh 30.32 in1026.8 mb 0.00 in0.0 mm 0.00 in0.0 mm 0.00 in0.0 mm
11:35 AM 50.2°F10.1°C 35.1°F1.7°C 56% 2.9 mph ENE4.7 kmh ENE 6.3 mph10.1 kmh 30.33 in1027.1 mb 0.00 in0.0 mm 0.00 in0.0 mm 0.00 in0.0 mm
11:30 AM 52.5°F11.4°C 34.3°F1.3°C 50% 3.8 mph SE6.1 kmh SE 5.4 mph8.7 kmh 30.33 in1027.1 mb 0.00 in0.0 mm 0.00 in0.0 mm 0.00 in0.0 mm
11:25 AM 56.1°F13.4°C 25.9°F-3.4°C 31% 4.3 mph E6.9 kmh E 8.5 mph13.7 kmh 30.33 in1027.1 mb 0.00 in0.0 mm 0.00 in0.0 mm 0.00 in0.0 mm
11:20 AM 56.3°F13.5°C 27.5°F-2.5°C 33% 2.0 mph ESE3.2 kmh ESE 7.4 mph11.9 kmh 30.33 in1027.1 mb 0.00 in0.0 mm 0.00 in0.0 mm 0.00 in0.0 mm
11:15 AM 55.9°F13.3°C 28.0°F-2.2°C 34% 6.0 mph SSE9.7 kmh SSE 8.5 mph13.7 kmh 30.33 in1027.1 mb 0.00 in0.0 mm 0.00 in0.0 mm 0.00 in0.0 mm
11:10 AM 56.1°F13.4°C 27.3°F-2.6°C 33% 3.4 mph SE5.5 kmh SE 6.3 mph10.1 kmh 30.33 in1027.1 mb 0.00 in0.0 mm 0.00 in0.0 mm 0.00 in0.0 mm
11:05 AM 56.1°F13.4°C 28.0°F-2.2°C 34% 2.2 mph SE3.5 kmh SE 6.3 mph10.1 kmh 30.33 in1027.1 mb 0.00 in0.0 mm 0.00 in0.0 mm 0.00 in0.0 mm
11:00 AM 55.8°F13.2°C 27.9°F-2.3°C 34% 2.7 mph SSE4.3 kmh SSE 6.3 mph10.1 kmh 30.33 in1027.1 mb 0.00 in0.0 mm 0.00 in0.0 mm 0.00 in0.0 mm
10:55 AM 55.8°F13.2°C 28.6°F-1.9°C 35% 2.2 mph SE3.5 kmh SE 4.3 mph6.9 kmh 30.34 in1027.4 mb 0.00 in0.0 mm 0.00 in0.0 mm 0.00 in0.0 mm
10:50 AM 54.9°F12.7°C 28.4°F-2.0°C 36% 2.5 mph S4.0 kmh S 6.3 mph10.1 kmh 30.34 in1027.4 mb 0.00 in0.0 mm 0.00 in0.0 mm 0.00 in0.0 mm
10:45 AM 54.9°F12.7°C 28.4°F-2.0°C 36% 3.4 mph ESE5.5 kmh ESE 5.4 mph8.7 kmh 30.34 in1027.4 mb 0.00 in0.0 mm 0.00 in0.0 mm 0.00 in0.0 mm
10:40 AM 54.9°F12.7°C 30.9°F-0.6°C 40% 1.8 mph ESE2.9 kmh ESE 5.4 mph8.7 kmh 30.34 in1027.4 mb 0.00 in0.0 mm 0.00 in0.0 mm 0.00 in0.0 mm
10:35 AM 53.8°F12.1°C 30.6°F-0.8°C 41% 3.4 mph S5.5 kmh S 6.3 mph10.1 kmh 30.34 in1027.4 mb 0.00 in0.0 mm 0.00 in0.0 mm 0.00 in0.0 mm
10:30 AM 52.2°F11.2°C 32.0°F0.0°C 46% 1.1 mph SSE1.8 kmh SSE 4.3 mph6.9 kmh 30.34 in1027.4 mb 0.00 in0.0 mm 0.00 in0.0 mm 0.00 in0.0 mm
10:25 AM 52.0°F11.1°C 34.0°F1.1°C 50% Calm Calm 2.0 mph3.2 kmh 30.34 in1027.4 mb 0.00 in0.0 mm 0.00 in0.0 mm 0.00 in0.0 mm
10:20 AM 50.2°F10.1°C 34.7°F1.5°C 55% 0.2 mph ESE0.3 kmh ESE 3.1 mph5.0 kmh 30.35 in1027.8 mb 0.00 in0.0 mm 0.00 in0.0 mm 0.00 in0.0 mm
10:15 AM 48.0°F8.9°C 34.3°F1.3°C 59% 1.8 mph SE2.9 kmh SE 4.3 mph6.9 kmh 30.35 in1027.8 mb 0.00 in0.0 mm 0.00 in0.0 mm 0.00 in0.0 mm
10:10 AM 46.2°F7.9°C 34.0°F1.1°C 62% 1.1 mph E1.8 kmh E 2.0 mph3.2 kmh 30.35 in1027.8 mb 0.00 in0.0 mm 0.00 in0.0 mm 0.00 in0.0 mm
10:05 AM 46.0°F7.8°C 32.9°F0.5°C 60% 1.1 mph ENE1.8 kmh ENE 2.0 mph3.2 kmh 30.35 in1027.8 mb 0.00 in0.0 mm 0.00 in0.0 mm 0.00 in0.0 mm
10:00 AM 46.4°F8.0°C 32.0°F0.0°C 57% 2.2 mph E3.5 kmh E 4.3 mph6.9 kmh 30.35 in1027.8 mb 0.00 in0.0 mm 0.00 in0.0 mm 0.00 in0.0 mm
09:55 AM 48.4°F9.1°C 31.6°F-0.2°C 52% 2.9 mph E4.7 kmh E 4.3 mph6.9 kmh 30.35 in1027.8 mb 0.00 in0.0 mm 0.00 in0.0 mm 0.00 in0.0 mm
09:50 AM 49.5°F9.7°C 32.0°F0.0°C 51% 2.5 mph NE4.0 kmh NE 3.1 mph5.0 kmh 30.35 in1027.8 mb 0.00 in0.0 mm 0.00 in0.0 mm 0.00 in0.0 mm
09:45 AM 51.3°F10.7°C 31.1°F-0.5°C 46% 0.4 mph NE0.6 kmh NE 2.0 mph3.2 kmh 30.35 in1027.8 mb 0.00 in0.0 mm 0.00 in0.0 mm 0.00 in0.0 mm
09:40 AM 51.1°F10.6°C 27.7°F-2.4°C 40% 0.7 mph S1.1 kmh S 3.1 mph5.0 kmh 30.35 in1027.8 mb 0.00 in0.0 mm 0.00 in0.0 mm 0.00 in0.0 mm
09:35 AM 50.9°F10.5°C 28.0°F-2.2°C 41% 0.4 mph S0.6 kmh S 3.1 mph5.0 kmh 30.36 in1028.1 mb 0.00 in0.0 mm 0.00 in0.0 mm 0.00 in0.0 mm
09:30 AM 50.4°F10.2°C 27.0°F-2.8°C 40% 1.6 mph SSE2.6 kmh SSE 3.1 mph5.0 kmh 30.36 in1028.1 mb 0.00 in0.0 mm 0.00 in0.0 mm 0.00 in0.0 mm
09:25 AM 50.2°F10.1°C 27.3°F-2.6°C 41% 1.3 mph S2.1 kmh S 6.3 mph10.1 kmh 30.36 in1028.1 mb 0.00 in0.0 mm 0.00 in0.0 mm 0.00 in0.0 mm
09:20 AM 49.8°F9.9°C 27.1°F-2.7°C 41% 1.3 mph S2.1 kmh S 5.4 mph8.7 kmh 30.36 in1028.1 mb 0.00 in0.0 mm 0.00 in0.0 mm 0.00 in0.0 mm
09:15 AM 49.5°F9.7°C 27.9°F-2.3°C 43% 2.0 mph S3.2 kmh S 4.3 mph6.9 kmh 30.36 in1028.1 mb 0.00 in0.0 mm 0.00 in0.0 mm 0.00 in0.0 mm
09:10 AM 48.7°F9.3°C 26.6°F-3.0°C 42% 2.2 mph SSE3.5 kmh SSE 5.4 mph8.7 kmh 30.36 in1028.1 mb 0.00 in0.0 mm 0.00 in0.0 mm 0.00 in0.0 mm
09:05 AM 48.4°F9.1°C 27.0°F-2.8°C 43% 2.7 mph SSE4.3 kmh SSE 5.4 mph8.7 kmh 30.37 in1028.4 mb 0.00 in0.0 mm 0.00 in0.0 mm 0.00 in0.0 mm
09:00 AM 48.0°F8.9°C 26.6°F-3.0°C 43% 2.9 mph SW4.7 kmh SW 6.3 mph10.1 kmh 30.37 in1028.4 mb 0.00 in0.0 mm 0.00 in0.0 mm 0.00 in0.0 mm
08:55 AM 47.5°F8.6°C 26.6°F-3.0°C 44% 2.7 mph SSW4.3 kmh SSW 5.4 mph8.7 kmh 30.37 in1028.4 mb 0.00 in0.0 mm 0.00 in0.0 mm 0.00 in0.0 mm
08:50 AM 46.8°F8.2°C 27.1°F-2.7°C 46% 2.5 mph SW4.0 kmh SW 5.4 mph8.7 kmh 30.37 in1028.4 mb 0.00 in0.0 mm 0.00 in0.0 mm 0.00 in0.0 mm
08:45 AM 46.6°F8.1°C 27.0°F-2.8°C 46% 2.2 mph SSW3.5 kmh SSW 4.3 mph6.9 kmh 30.37 in1028.4 mb 0.00 in0.0 mm 0.00 in0.0 mm 0.00 in0.0 mm
08:40 AM 45.7°F7.6°C 26.6°F-3.0°C 47% 3.4 mph SW5.5 kmh SW 5.4 mph8.7 kmh 30.37 in1028.4 mb 0.00 in0.0 mm 0.00 in0.0 mm 0.00 in0.0 mm
08:35 AM 44.4°F6.9°C 27.5°F-2.5°C 51% 2.5 mph SSW4.0 kmh SSW 6.3 mph10.1 kmh 30.36 in1028.1 mb 0.00 in0.0 mm 0.00 in0.0 mm 0.00 in0.0 mm
08:30 AM 41.9°F5.5°C 28.6°F-1.9°C 59% 2.0 mph SSW3.2 kmh SSW 4.3 mph6.9 kmh 30.37 in1028.4 mb 0.00 in0.0 mm 0.00 in0.0 mm 0.00 in0.0 mm
08:25 AM 40.3°F4.6°C 30.6°F-0.8°C 68% 1.6 mph SW2.6 kmh SW 4.3 mph6.9 kmh 30.37 in1028.4 mb 0.00 in0.0 mm 0.00 in0.0 mm 0.00 in0.0 mm
08:20 AM 39.4°F4.1°C 30.7°F-0.7°C 71% Calm Calm -- 30.37 in1028.4 mb 0.00 in0.0 mm 0.00 in0.0 mm 0.00 in0.0 mm
08:15 AM 38.1°F3.4°C 29.8°F-1.2°C 72% Calm Calm -- 30.36 in1028.1 mb 0.00 in0.0 mm 0.00 in0.0 mm 0.00 in0.0 mm
08:10 AM 37.2°F2.9°C 29.1°F-1.6°C 72% Calm Calm -- 30.37 in1028.4 mb 0.00 in0.0 mm 0.00 in0.0 mm 0.00 in0.0 mm
08:05 AM 36.3°F2.4°C 28.6°F-1.9°C 73% Calm Calm -- 30.37 in1028.4 mb 0.00 in0.0 mm 0.00 in0.0 mm 0.00 in0.0 mm
08:00 AM 35.4°F1.9°C 28.0°F-2.2°C 74% Calm Calm -- 30.37 in1028.4 mb 0.00 in0.0 mm 0.00 in0.0 mm 0.00 in0.0 mm
07:55 AM 34.9°F1.6°C 27.1°F-2.7°C 73% Calm Calm -- 30.37 in1028.4 mb 0.00 in0.0 mm 0.00 in0.0 mm 0.00 in0.0 mm
07:50 AM 34.2°F1.2°C 26.4°F-3.1°C 73% Calm Calm -- 30.37 in1028.4 mb 0.00 in0.0 mm 0.00 in0.0 mm 0.00 in0.0 mm
07:45 AM 33.8°F1.0°C 26.1°F-3.3°C 73% Calm Calm -- 30.36 in1028.1 mb 0.00 in0.0 mm 0.00 in0.0 mm 0.00 in0.0 mm
07:40 AM 33.4°F0.8°C 26.1°F-3.3°C 74% Calm Calm -- 30.37 in1028.4 mb 0.00 in0.0 mm 0.00 in0.0 mm 0.00 in0.0 mm
07:35 AM 33.3°F0.7°C 25.9°F-3.4°C 74% Calm Calm -- 30.37 in1028.4 mb 0.00 in0.0 mm 0.00 in0.0 mm 0.00 in0.0 mm
07:30 AM 33.1°F0.6°C 26.1°F-3.3°C 75% Calm Calm -- 30.37 in1028.4 mb 0.00 in0.0 mm 0.00 in0.0 mm 0.00 in0.0 mm
07:25 AM 32.9°F0.5°C 25.5°F-3.6°C 74% Calm Calm -- 30.37 in1028.4 mb 0.00 in0.0 mm 0.00 in0.0 mm 0.00 in0.0 mm
07:20 AM 32.7°F0.4°C 25.3°F-3.7°C 74% Calm Calm -- 30.37 in1028.4 mb 0.00 in0.0 mm 0.00 in0.0 mm 0.00 in0.0 mm
07:15 AM 32.7°F0.4°C 25.0°F-3.9°C 73% Calm Calm -- 30.37 in1028.4 mb 0.00 in0.0 mm 0.00 in0.0 mm 0.00 in0.0 mm
07:10 AM 32.9°F0.5°C 25.2°F-3.8°C 73% Calm Calm -- 30.37 in1028.4 mb 0.00 in0.0 mm 0.00 in0.0 mm 0.00 in0.0 mm
07:05 AM 32.9°F0.5°C 24.8°F-4.0°C 72% Calm Calm -- 30.37 in1028.4 mb 0.00 in0.0 mm 0.00 in0.0 mm 0.00 in0.0 mm
07:00 AM 32.9°F0.5°C 24.8°F-4.0°C 72% Calm Calm -- 30.36 in1028.1 mb 0.00 in0.0 mm 0.00 in0.0 mm 0.00 in0.0 mm
06:55 AM 33.1°F0.6°C 24.6°F-4.1°C 71% Calm Calm -- 30.36 in1028.1 mb 0.00 in0.0 mm 0.00 in0.0 mm 0.00 in0.0 mm
06:50 AM 33.3°F0.7°C 24.8°F-4.0°C 71% Calm Calm -- 30.36 in1028.1 mb 0.00 in0.0 mm 0.00 in0.0 mm 0.00 in0.0 mm
06:45 AM 33.4°F0.8°C 24.8°F-4.0°C 70% Calm Calm -- 30.36 in1028.1 mb 0.00 in0.0 mm 0.00 in0.0 mm 0.00 in0.0 mm
06:40 AM 33.6°F0.9°C 24.8°F-4.0°C 70% Calm Calm 1.1 mph1.8 kmh 30.36 in1028.1 mb 0.00 in0.0 mm 0.00 in0.0 mm 0.00 in0.0 mm
06:35 AM 34.0°F1.1°C 24.8°F-4.0°C 69% 0.9 mph WSW1.4 kmh WSW 2.0 mph3.2 kmh 30.35 in1027.8 mb 0.00 in0.0 mm 0.00 in0.0 mm 0.00 in0.0 mm
06:30 AM 34.3°F1.3°C 24.4°F-4.2°C 67% 0.4 mph WSW0.6 kmh WSW 3.1 mph5.0 kmh 30.35 in1027.8 mb 0.00 in0.0 mm 0.00 in0.0 mm 0.00 in0.0 mm
06:25 AM 34.7°F1.5°C 24.8°F-4.0°C 67% 1.8 mph SSW2.9 kmh SSW 4.3 mph6.9 kmh 30.35 in1027.8 mb 0.00 in0.0 mm 0.00 in0.0 mm 0.00 in0.0 mm
06:20 AM 35.1°F1.7°C 24.8°F-4.0°C 66% 1.6 mph SW2.6 kmh SW 4.3 mph6.9 kmh 30.35 in1027.8 mb 0.00 in0.0 mm 0.00 in0.0 mm 0.00 in0.0 mm
06:15 AM 35.4°F1.9°C 24.8°F-4.0°C 65% 2.0 mph SW3.2 kmh SW 3.1 mph5.0 kmh 30.35 in1027.8 mb 0.00 in0.0 mm 0.00 in0.0 mm 0.00 in0.0 mm
06:10 AM 35.8°F2.1°C 24.8°F-4.0°C 64% 1.8 mph WSW2.9 kmh WSW 3.1 mph5.0 kmh 30.35 in1027.8 mb 0.00 in0.0 mm 0.00 in0.0 mm 0.00 in0.0 mm
06:05 AM 36.1°F2.3°C 24.8°F-4.0°C 63% 1.3 mph SW2.1 kmh SW 3.1 mph5.0 kmh 30.35 in1027.8 mb 0.00 in0.0 mm 0.00 in0.0 mm 0.00 in0.0 mm
06:00 AM 36.3°F2.4°C 24.6°F-4.1°C 62% 1.1 mph SW1.8 kmh SW 3.1 mph5.0 kmh 30.35 in1027.8 mb 0.00 in0.0 mm 0.00 in0.0 mm 0.00 in0.0 mm
05:55 AM 36.7°F2.6°C 25.0°F-3.9°C 62% 1.6 mph SW2.6 kmh SW 3.1 mph5.0 kmh 30.35 in1027.8 mb 0.00 in0.0 mm 0.00 in0.0 mm 0.00 in0.0 mm
05:50 AM 36.9°F2.7°C 25.0°F-3.9°C 62% 1.6 mph WSW2.6 kmh WSW 3.1 mph5.0 kmh 30.35 in1027.8 mb 0.00 in0.0 mm 0.00 in0.0 mm 0.00 in0.0 mm
05:45 AM 37.0°F2.8°C 24.8°F-4.0°C 61% 2.2 mph SW3.5 kmh SW 4.3 mph6.9 kmh 30.35 in1027.8 mb 0.00 in0.0 mm 0.00 in0.0 mm 0.00 in0.0 mm
05:40 AM 37.4°F3.0°C 24.8°F-4.0°C 60% 2.0 mph SW3.2 kmh SW 4.3 mph6.9 kmh 30.35 in1027.8 mb 0.00 in0.0 mm 0.00 in0.0 mm 0.00 in0.0 mm
05:35 AM 37.6°F3.1°C 25.0°F-3.9°C 60% 3.1 mph SW5.0 kmh SW 4.3 mph6.9 kmh 30.35 in1027.8 mb 0.00 in0.0 mm 0.00 in0.0 mm 0.00 in0.0 mm
05:30 AM 37.8°F3.2°C 24.8°F-4.0°C 59% 3.1 mph SW5.0 kmh SW 5.4 mph8.7 kmh 30.35 in1027.8 mb 0.00 in0.0 mm 0.00 in0.0 mm 0.00 in0.0 mm
05:25 AM 37.9°F3.3°C 25.0°F-3.9°C 59% 2.2 mph SW3.5 kmh SW 5.4 mph8.7 kmh 30.35 in1027.8 mb 0.00 in0.0 mm 0.00 in0.0 mm 0.00 in0.0 mm
05:20 AM 38.1°F3.4°C 25.0°F-3.9°C 59% 3.4 mph SSW5.5 kmh SSW 5.4 mph8.7 kmh 30.35 in1027.8 mb 0.00 in0.0 mm 0.00 in0.0 mm 0.00 in0.0 mm
05:15 AM 38.3°F3.5°C 24.8°F-4.0°C 58% 3.8 mph SW6.1 kmh SW 5.4 mph8.7 kmh 30.35 in1027.8 mb 0.00 in0.0 mm 0.00 in0.0 mm 0.00 in0.0 mm
05:10 AM 38.5°F3.6°C 25.0°F-3.9°C 58% 3.6 mph SW5.8 kmh SW 5.4 mph8.7 kmh 30.35 in1027.8 mb 0.00 in0.0 mm 0.00 in0.0 mm 0.00 in0.0 mm
05:05 AM 38.5°F3.6°C 25.0°F-3.9°C 58% 2.9 mph SSW4.7 kmh SSW 5.4 mph8.7 kmh 30.35 in1027.8 mb 0.00 in0.0 mm 0.00 in0.0 mm 0.00 in0.0 mm
05:00 AM 38.7°F3.7°C 25.2°F-3.8°C 58% 3.8 mph SW6.1 kmh SW 6.3 mph10.1 kmh 30.35 in1027.8 mb 0.00 in0.0 mm 0.00 in0.0 mm 0.00 in0.0 mm
04:55 AM 38.7°F3.7°C 25.2°F-3.8°C 58% 3.1 mph SSW5.0 kmh SSW 5.4 mph8.7 kmh 30.35 in1027.8 mb 0.00 in0.0 mm 0.00 in0.0 mm 0.00 in0.0 mm
04:50 AM 38.7°F3.7°C 25.2°F-3.8°C 58% 3.6 mph SSW5.8 kmh SSW 5.4 mph8.7 kmh 30.35 in1027.8 mb 0.00 in0.0 mm 0.00 in0.0 mm 0.00 in0.0 mm
04:45 AM 38.7°F3.7°C 25.2°F-3.8°C 58% 2.0 mph SSW3.2 kmh SSW 3.1 mph5.0 kmh 30.35 in1027.8 mb 0.00 in0.0 mm 0.00 in0.0 mm 0.00 in0.0 mm
04:40 AM 38.8°F3.8°C 25.3°F-3.7°C 58% 2.5 mph SW4.0 kmh SW 6.3 mph10.1 kmh 30.35 in1027.8 mb 0.00 in0.0 mm 0.00 in0.0 mm 0.00 in0.0 mm
04:35 AM 38.8°F3.8°C 25.3°F-3.7°C 58% 3.4 mph SSW5.5 kmh SSW 6.3 mph10.1 kmh 30.35 in1027.8 mb 0.00 in0.0 mm 0.00 in0.0 mm 0.00 in0.0 mm
04:30 AM 38.8°F3.8°C 25.3°F-3.7°C 58% 2.7 mph SSW4.3 kmh SSW 6.3 mph10.1 kmh 30.35 in1027.8 mb 0.00 in0.0 mm 0.00 in0.0 mm 0.00 in0.0 mm
04:25 AM 38.8°F3.8°C 25.3°F-3.7°C 58% 2.7 mph S4.3 kmh S 5.4 mph8.7 kmh 30.35 in1027.8 mb 0.00 in0.0 mm 0.00 in0.0 mm 0.00 in0.0 mm
04:20 AM 38.7°F3.7°C 25.5°F-3.6°C 59% 2.7 mph S4.3 kmh S 5.4 mph8.7 kmh 30.35 in1027.8 mb 0.00 in0.0 mm 0.00 in0.0 mm 0.00 in0.0 mm
04:15 AM 37.9°F3.3°C 25.7°F-3.5°C 61% 3.8 mph SW6.1 kmh SW 6.3 mph10.1 kmh 30.34 in1027.4 mb 0.00 in0.0 mm 0.00 in0.0 mm 0.00 in0.0 mm
04:10 AM 37.0°F2.8°C 25.7°F-3.5°C 63% 3.4 mph SSW5.5 kmh SSW 7.4 mph11.9 kmh 30.34 in1027.4 mb 0.00 in0.0 mm 0.00 in0.0 mm 0.00 in0.0 mm
04:05 AM 36.3°F2.4°C 26.1°F-3.3°C 66% 2.7 mph SW4.3 kmh SW 5.4 mph8.7 kmh 30.34 in1027.4 mb 0.00 in0.0 mm 0.00 in0.0 mm 0.00 in0.0 mm
04:00 AM 35.4°F1.9°C 25.5°F-3.6°C 67% 3.4 mph S5.5 kmh S 6.3 mph10.1 kmh 30.34 in1027.4 mb 0.00 in0.0 mm 0.00 in0.0 mm 0.00 in0.0 mm
03:55 AM 35.1°F1.7°C 25.9°F-3.4°C 69% 2.2 mph SSW3.5 kmh SSW 4.3 mph6.9 kmh 30.34 in1027.4 mb 0.00 in0.0 mm 0.00 in0.0 mm 0.00 in0.0 mm
03:50 AM 34.7°F1.5°C 25.9°F-3.4°C 70% 2.0 mph SSW3.2 kmh SSW 4.3 mph6.9 kmh 30.34 in1027.4 mb 0.00 in0.0 mm 0.00 in0.0 mm 0.00 in0.0 mm
03:45 AM 34.3°F1.3°C 25.9°F-3.4°C 71% 1.6 mph SW2.6 kmh SW 3.1 mph5.0 kmh 30.34 in1027.4 mb 0.00 in0.0 mm 0.00 in0.0 mm 0.00 in0.0 mm
03:40 AM 34.0°F1.1°C 25.9°F-3.4°C 72% 2.5 mph SW4.0 kmh SW 5.4 mph8.7 kmh 30.34 in1027.4 mb 0.00 in0.0 mm 0.00 in0.0 mm 0.00 in0.0 mm
03:35 AM 33.4°F0.8°C 25.7°F-3.5°C 73% 2.9 mph SSW4.7 kmh SSW 5.4 mph8.7 kmh 30.34 in1027.4 mb 0.00 in0.0 mm 0.00 in0.0 mm 0.00 in0.0 mm
03:30 AM 33.3°F0.7°C 25.9°F-3.4°C 74% 2.2 mph SSW3.5 kmh SSW 3.1 mph5.0 kmh 30.34 in1027.4 mb 0.00 in0.0 mm 0.00 in0.0 mm 0.00 in0.0 mm
03:25 AM 33.3°F0.7°C 25.9°F-3.4°C 74% 2.0 mph SSW3.2 kmh SSW 3.1 mph5.0 kmh 30.34 in1027.4 mb 0.00 in0.0 mm 0.00 in0.0 mm 0.00 in0.0 mm
03:20 AM 33.3°F0.7°C 25.9°F-3.4°C 74% 2.0 mph SSW3.2 kmh SSW 3.1 mph5.0 kmh 30.34 in1027.4 mb 0.00 in0.0 mm 0.00 in0.0 mm 0.00 in0.0 mm
03:15 AM 33.3°F0.7°C 25.9°F-3.4°C 74% 1.6 mph SW2.6 kmh SW 3.1 mph5.0 kmh 30.34 in1027.4 mb 0.00 in0.0 mm 0.00 in0.0 mm 0.00 in0.0 mm
03:10 AM 33.3°F0.7°C 25.9°F-3.4°C 74% 2.0 mph SSW3.2 kmh SSW 3.1 mph5.0 kmh 30.34 in1027.4 mb 0.00 in0.0 mm 0.00 in0.0 mm 0.00 in0.0 mm
03:05 AM 33.4°F0.8°C 26.1°F-3.3°C 74% 1.3 mph SSW2.1 kmh SSW 3.1 mph5.0 kmh 30.34 in1027.4 mb 0.00 in0.0 mm 0.00 in0.0 mm 0.00 in0.0 mm
03:00 AM 33.4°F0.8°C 26.1°F-3.3°C 74% Calm Calm 2.0 mph3.2 kmh 30.34 in1027.4 mb 0.00 in0.0 mm 0.00 in0.0 mm 0.00 in0.0 mm
02:55 AM 33.4°F0.8°C 25.7°F-3.5°C 73% 1.1 mph SSW1.8 kmh SSW 2.0 mph3.2 kmh 30.34 in1027.4 mb 0.00 in0.0 mm 0.00 in0.0 mm 0.00 in0.0 mm
02:50 AM 33.6°F0.9°C 25.9°F-3.4°C 73% 1.1 mph SSW1.8 kmh SSW 2.0 mph3.2 kmh 30.34 in1027.4 mb 0.00 in0.0 mm 0.00 in0.0 mm 0.00 in0.0 mm
02:45 AM 33.6°F0.9°C 25.9°F-3.4°C 73% 1.3 mph SSW2.1 kmh SSW 3.1 mph5.0 kmh 30.34 in1027.4 mb 0.00 in0.0 mm 0.00 in0.0 mm 0.00 in0.0 mm
02:40 AM 33.6°F0.9°C 25.9°F-3.4°C 73% 1.1 mph SSW1.8 kmh SSW 2.0 mph3.2 kmh 30.34 in1027.4 mb 0.00 in0.0 mm 0.00 in0.0 mm 0.00 in0.0 mm
02:35 AM 33.8°F1.0°C 26.1°F-3.3°C 73% 1.1 mph SW1.8 kmh SW 2.0 mph3.2 kmh 30.34 in1027.4 mb 0.00 in0.0 mm 0.00 in0.0 mm 0.00 in0.0 mm
02:30 AM 33.8°F1.0°C 26.1°F-3.3°C 73% 1.3 mph SW2.1 kmh SW 4.3 mph6.9 kmh 30.34 in1027.4 mb 0.00 in0.0 mm 0.00 in0.0 mm 0.00 in0.0 mm
02:25 AM 34.0°F1.1°C 26.2°F-3.2°C 73% 2.0 mph SW3.2 kmh SW 4.3 mph6.9 kmh 30.34 in1027.4 mb 0.00 in0.0 mm 0.00 in0.0 mm 0.00 in0.0 mm
02:20 AM 34.0°F1.1°C 25.9°F-3.4°C 72% 2.2 mph SW3.5 kmh SW 4.3 mph6.9 kmh 30.34 in1027.4 mb 0.00 in0.0 mm 0.00 in0.0 mm 0.00 in0.0 mm
02:15 AM 34.2°F1.2°C 26.1°F-3.3°C 72% 1.6 mph SW2.6 kmh SW 3.1 mph5.0 kmh 30.34 in1027.4 mb 0.00 in0.0 mm 0.00 in0.0 mm 0.00 in0.0 mm
02:10 AM 34.2°F1.2°C 26.1°F-3.3°C 72% 1.1 mph SSW1.8 kmh SSW 2.0 mph3.2 kmh 30.34 in1027.4 mb 0.00 in0.0 mm 0.00 in0.0 mm 0.00 in0.0 mm
02:05 AM 34.2°F1.2°C 26.1°F-3.3°C 72% 1.3 mph SW2.1 kmh SW 3.1 mph5.0 kmh 30.35 in1027.8 mb 0.00 in0.0 mm 0.00 in0.0 mm 0.00 in0.0 mm
02:00 AM 34.3°F1.3°C 25.9°F-3.4°C 71% 1.8 mph SW2.9 kmh SW 3.1 mph5.0 kmh 30.35 in1027.8 mb 0.00 in0.0 mm 0.00 in0.0 mm 0.00 in0.0 mm
01:55 AM 34.7°F1.5°C 25.9°F-3.4°C 70% 1.3 mph SW2.1 kmh SW 2.0 mph3.2 kmh 30.35 in1027.8 mb 0.00 in0.0 mm 0.00 in0.0 mm 0.00 in0.0 mm
01:50 AM 35.1°F1.7°C 26.2°F-3.2°C 70% 1.6 mph SW2.6 kmh SW 3.1 mph5.0 kmh 30.35 in1027.8 mb 0.00 in0.0 mm 0.00 in0.0 mm 0.00 in0.0 mm
01:45 AM 35.4°F1.9°C 26.2°F-3.2°C 69% 1.1 mph SW1.8 kmh SW 2.0 mph3.2 kmh 30.35 in1027.8 mb 0.00 in0.0 mm 0.00 in0.0 mm 0.00 in0.0 mm
01:40 AM 35.8°F2.1°C 26.6°F-3.0°C 69% 1.1 mph SW1.8 kmh SW 2.0 mph3.2 kmh 30.36 in1028.1 mb 0.00 in0.0 mm 0.00 in0.0 mm 0.00 in0.0 mm
01:35 AM 36.1°F2.3°C 26.2°F-3.2°C 67% 1.1 mph SW1.8 kmh SW 2.0 mph3.2 kmh 30.36 in1028.1 mb 0.00 in0.0 mm 0.00 in0.0 mm 0.00 in0.0 mm
01:30 AM 36.7°F2.6°C 26.4°F-3.1°C 66% 1.1 mph SW1.8 kmh SW 2.0 mph3.2 kmh 30.36 in1028.1 mb 0.00 in0.0 mm 0.00 in0.0 mm 0.00 in0.0 mm
01:25 AM 37.2°F2.9°C 26.2°F-3.2°C 64% 1.3 mph SW2.1 kmh SW 2.0 mph3.2 kmh 30.36 in1028.1 mb 0.00 in0.0 mm 0.00 in0.0 mm 0.00 in0.0 mm
01:20 AM 37.9°F3.3°C 26.4°F-3.1°C 63% 1.1 mph SW1.8 kmh SW 2.0 mph3.2 kmh 30.36 in1028.1 mb 0.00 in0.0 mm 0.00 in0.0 mm 0.00 in0.0 mm
01:15 AM 38.5°F3.6°C 26.6°F-3.0°C 62% 1.1 mph SW1.8 kmh SW 2.0 mph3.2 kmh 30.36 in1028.1 mb 0.00 in0.0 mm 0.00 in0.0 mm 0.00 in0.0 mm
01:10 AM 39.0°F3.9°C 26.2°F-3.2°C 60% 0.2 mph S0.3 kmh S 1.1 mph1.8 kmh 30.36 in1028.1 mb 0.00 in0.0 mm 0.00 in0.0 mm 0.00 in0.0 mm
01:05 AM 39.6°F4.2°C 26.4°F-3.1°C 59% 0.9 mph SSW1.4 kmh SSW 2.0 mph3.2 kmh 30.35 in1027.8 mb 0.00 in0.0 mm 0.00 in0.0 mm 0.00 in0.0 mm
01:00 AM 39.9°F4.4°C 26.8°F-2.9°C 59% 1.3 mph SSW2.1 kmh SSW 2.0 mph3.2 kmh 30.36 in1028.1 mb 0.00 in0.0 mm 0.00 in0.0 mm 0.00 in0.0 mm
12:55 AM 40.3°F4.6°C 26.2°F-3.2°C 57% 1.3 mph SSW2.1 kmh SSW 4.3 mph6.9 kmh 30.36 in1028.1 mb 0.00 in0.0 mm 0.00 in0.0 mm 0.00 in0.0 mm
12:50 AM 40.6°F4.8°C 26.6°F-3.0°C 57% 1.6 mph SSW2.6 kmh SSW 3.1 mph5.0 kmh 30.35 in1027.8 mb 0.00 in0.0 mm 0.00 in0.0 mm 0.00 in0.0 mm
12:45 AM 41.0°F5.0°C 26.4°F-3.1°C 56% 0.7 mph SW1.1 kmh SW 4.3 mph6.9 kmh 30.36 in1028.1 mb 0.00 in0.0 mm 0.00 in0.0 mm 0.00 in0.0 mm
12:40 AM 41.4°F5.2°C 26.8°F-2.9°C 56% 2.7 mph SW4.3 kmh SW 5.4 mph8.7 kmh 30.35 in1027.8 mb 0.00 in0.0 mm 0.00 in0.0 mm 0.00 in0.0 mm
12:35 AM 41.5°F5.3°C 26.6°F-3.0°C 55% 2.9 mph SSW4.7 kmh SSW 5.4 mph8.7 kmh 30.35 in1027.8 mb 0.00 in0.0 mm 0.00 in0.0 mm 0.00 in0.0 mm
12:30 AM 41.5°F5.3°C 26.6°F-3.0°C 55% 2.9 mph SW4.7 kmh SW 7.4 mph11.9 kmh 30.35 in1027.8 mb 0.00 in0.0 mm 0.00 in0.0 mm 0.00 in0.0 mm
12:25 AM 41.7°F5.4°C 26.2°F-3.2°C 54% 3.4 mph SSW5.5 kmh SSW 6.3 mph10.1 kmh 30.35 in1027.8 mb 0.00 in0.0 mm 0.00 in0.0 mm 0.00 in0.0 mm
12:20 AM 41.7°F5.4°C 26.2°F-3.2°C 54% 3.4 mph SSW5.5 kmh SSW 7.4 mph11.9 kmh 30.35 in1027.8 mb 0.00 in0.0 mm 0.00 in0.0 mm 0.00 in0.0 mm
12:15 AM 42.1°F5.6°C 26.6°F-3.0°C 54% 3.8 mph SW6.1 kmh SW 6.3 mph10.1 kmh 30.35 in1027.8 mb 0.00 in0.0 mm 0.00 in0.0 mm 0.00 in0.0 mm
12:10 AM 42.1°F5.6°C 26.6°F-3.0°C 54% 5.1 mph SSW8.2 kmh SSW 8.5 mph13.7 kmh 30.35 in1027.8 mb 0.00 in0.0 mm 0.00 in0.0 mm 0.00 in0.0 mm
12:05 AM 41.9°F5.5°C 26.4°F-3.1°C 54% 3.4 mph SW5.5 kmh SW 9.6 mph15.4 kmh 30.35 in1027.8 mb 0.00 in0.0 mm 0.00 in0.0 mm 0.00 in0.0 mm
12:00 AM 41.7°F5.4°C 26.8°F-2.9°C 55% 2.9 mph SW4.7 kmh SW 5.4 mph8.7 kmh 30.35 in1027.8 mb 0.00 in0.0 mm 0.00 in0.0 mm 0.00 in0.0 mm